Time;durP1;ratioP1;P1;durP2;ratioP2;P2;SDS_P1;SDS_P2;PMS_P1;PMS_P2;Temp;Humidity;BMP_temperature;BMP_pressure;BME280_temperature;BME280_humidity;BME280_pressure;Samples;Min_cycle;Max_cycle;Signal;HPM_P1;HPM_P2
2021/04/13 02:17:34;;;;;;;15.15;10.78;;;;;;;9.40;100.00;101477.47;1803333;79;21421;-87
2021/04/13 02:20:08;;;;;;;18.07;11.08;;;;;;;9.38;100.00;101467.61;1777417;80;21155;-89
2021/04/13 02:22:46;;;;;;;15.30;10.85;;;;;;;9.35;100.00;101470.85;1780753;80;21151;-89
2021/04/13 02:25:20;;;;;;;14.10;10.58;;;;;;;9.32;100.00;101469.27;1770805;79;21590;-89
2021/04/13 02:27:49;;;;;;;17.57;11.03;;;;;;;9.31;100.00;101477.98;1771437;80;21182;-89
2021/04/13 02:30:28;;;;;;;13.88;10.82;;;;;;;9.33;100.00;101477.89;1779991;79;21131;-89
2021/04/13 02:33:00;;;;;;;14.35;11.40;;;;;;;9.34;100.00;101467.39;1776837;80;21124;-89
2021/04/13 02:35:30;;;;;;;;;;;;;;;9.38;100.00;101471.52;1775617;78;21563;-89
2021/04/13 02:38:02;;;;;;;13.88;11.05;;;;;;;9.39;100.00;101467.99;1748438;80;21199;-89
2021/04/13 02:40:52;;;;;;;13.72;11.18;;;;;;;9.39;100.00;101466.70;1772748;80;21173;-89
2021/04/13 02:43:50;;;;;;;15.93;12.40;;;;;;;9.38;100.00;101471.52;1774946;80;21141;-89
2021/04/13 04:06:18;;;;;;;17.23;12.78;;;;;;;9.20;100.00;101511.52;1703428;83;21166;-86
2021/04/13 04:09:14;;;;;;;19.67;13.28;;;;;;;9.22;100.00;101518.30;1713458;83;21740;-85
2021/04/13 04:11:45;;;;;;;18.77;14.05;;;;;;;9.22;100.00;101526.09;1740045;81;22268;-85
2021/04/13 04:18:50;;;;;;;29.87;15.13;;;;;;;9.19;100.00;101522.83;1744723;81;21148;-86
2021/04/13 04:21:37;;;;;;;27.67;14.75;;;;;;;9.43;100.00;101525.84;1702746;83;21190;-86
2021/04/13 04:24:24;;;;;;;22.42;13.75;;;;;;;10.00;100.00;101521.30;1677161;84;21174;-86
2021/04/13 04:27:01;;;;;;;28.20;15.32;;;;;;;10.34;100.00;101531.03;1679811;84;22147;-85
2021/04/13 04:29:42;;;;;;;22.25;14.10;;;;;;;10.47;100.00;101527.72;1681515;84;21250;-86
2021/04/13 04:36:35;;;;;;;26.60;14.78;;;;;;;10.66;100.00;101520.47;1680923;83;21156;-86
2021/04/13 04:39:28;;;;;;;23.83;15.65;;;;;;;10.86;100.00;101521.85;1712199;83;21290;-86
2021/04/13 04:49:12;;;;;;;39.78;15.68;;;;;;;11.31;100.00;101503.41;1743792;81;21143;-86
2021/04/13 04:51:54;;;;;;;38.00;15.23;;;;;;;11.44;100.00;101496.09;1741474;81;21239;-87
2021/04/13 04:54:25;;;;;;;42.30;16.35;;;;;;;11.55;100.00;101498.84;1740977;82;21171;-86
2021/04/13 05:00:58;;;;;;;33.40;15.72;;;;;;;11.74;100.00;101502.39;1679728;84;21361;-84
2021/04/13 05:03:43;;;;;;;28.52;16.27;;;;;;;11.75;100.00;101500.15;1678639;84;21147;-85
2021/04/13 05:06:20;;;;;;;21.27;14.70;;;;;;;11.73;100.00;101495.98;1652997;86;21187;-85
2021/04/13 05:08:49;;;;;;;16.15;13.72;;;;;;;11.78;100.00;101499.10;1666494;84;21245;-88
2021/04/13 05:11:17;;;;;;;18.12;14.45;;;;;;;11.77;100.00;101494.82;1703890;83;21329;-87
2021/04/13 05:13:46;;;;;;;22.07;14.60;;;;;;;11.75;100.00;101492.32;1736814;81;21656;-87
2021/04/13 05:16:14;;;;;;;19.42;15.00;;;;;;;11.75;100.00;101496.69;1714363;83;21157;-87
2021/04/13 05:18:43;;;;;;;21.05;14.38;;;;;;;11.73;100.00;101488.97;1715258;83;21194;-87
2021/04/13 05:21:11;;;;;;;19.12;15.38;;;;;;;11.73;100.00;101486.84;1715279;83;21577;-87
2021/04/13 05:23:39;;;;;;;17.25;14.47;;;;;;;11.72;100.00;101487.30;1714781;82;21201;-87
2021/04/13 05:26:09;;;;;;;16.60;14.58;;;;;;;11.66;100.00;101480.70;1732703;81;21622;-87
2021/04/13 05:28:37;;;;;;;17.95;14.63;;;;;;;11.60;100.00;101483.72;1744921;80;21445;-87
2021/04/13 05:31:06;;;;;;;17.65;15.23;;;;;;;11.57;100.00;101487.00;1746734;81;21150;-87
2021/04/13 05:33:35;;;;;;;20.45;15.38;;;;;;;11.55;100.00;101485.81;1766847;80;21135;-87
2021/04/13 05:36:05;;;;;;;19.17;15.58;;;;;;;11.55;100.00;101487.56;1745669;80;21338;-87
2021/04/13 05:38:40;;;;;;;18.87;16.03;;;;;;;11.56;100.00;101483.57;1740945;81;21744;-87
2021/04/13 05:41:13;;;;;;;21.48;15.70;;;;;;;11.57;100.00;101479.17;1741739;81;21604;-87
2021/04/13 05:43:43;;;;;;;20.32;16.95;;;;;;;11.57;100.00;101480.48;1742032;81;21163;-87
2021/04/13 05:46:24;;;;;;;20.08;16.07;;;;;;;11.53;100.00;101479.84;1740830;81;21153;-87
2021/04/13 05:48:53;;;;;;;21.10;17.77;;;;;;;11.48;100.00;101478.02;1743131;82;25649;-87
2021/04/13 05:51:22;;;;;;;21.95;17.57;;;;;;;11.39;100.00;101481.22;1741407;81;21175;-87
2021/04/13 05:53:51;;;;;;;19.85;15.20;;;;;;;11.28;100.00;101490.56;1708564;83;21162;-87
2021/04/13 05:56:24;;;;;;;20.23;17.02;;;;;;;11.16;100.00;101492.18;1709804;82;21123;-87
2021/04/13 05:58:55;;;;;;;21.68;17.30;;;;;;;11.12;100.00;101493.33;1675956;84;21641;-87
2021/04/13 06:01:26;;;;;;;23.47;17.23;;;;;;;11.13;100.00;101492.40;1709321;82;21363;-87
2021/04/13 06:03:55;;;;;;;18.70;16.12;;;;;;;11.09;100.00;101489.60;1682397;84;21237;-87
2021/04/13 06:06:23;;;;;;;21.65;17.50;;;;;;;11.02;100.00;101491.75;1683801;84;21170;-87
2021/04/13 06:08:51;;;;;;;25.15;19.17;;;;;;;11.01;100.00;101495.77;1686964;84;21175;-87
2021/04/13 06:11:27;;;;;;;24.72;19.70;;;;;;;10.94;100.00;101496.60;1684757;84;21158;-87
2021/04/13 06:14:00;;;;;;;23.90;17.85;;;;;;;10.88;100.00;101500.91;1683625;83;21645;-87
2021/04/13 06:16:35;;;;;;;26.15;18.85;;;;;;;10.86;100.00;101493.19;1684646;85;21210;-87
2021/04/13 06:19:01;;;;;;;26.35;18.87;;;;;;;10.88;100.00;101497.00;1684609;84;21294;-88
2021/04/13 06:21:33;;;;;;;21.10;17.10;;;;;;;10.93;100.00;101502.78;1688169;85;21201;-87
2021/04/13 06:24:05;;;;;;;24.77;18.80;;;;;;;10.98;100.00;101502.45;1684002;84;21250;-87
2021/04/13 06:26:33;;;;;;;21.68;17.27;;;;;;;11.01;100.00;101495.31;1683444;84;21241;-87
2021/04/13 06:29:04;;;;;;;20.68;16.85;;;;;;;11.05;100.00;101498.08;1686436;84;21642;-88
2021/04/13 06:31:32;;;;;;;21.62;16.62;;;;;;;11.15;100.00;101508.75;1686718;84;21150;-88
2021/04/13 06:34:01;;;;;;;20.57;17.30;;;;;;;11.22;100.00;101505.30;1688133;85;21187;-88
2021/04/13 06:36:36;;;;;;;22.65;17.52;;;;;;;11.26;100.00;101507.24;1683551;84;21652;-87
2021/04/13 06:39:06;;;;;;;23.50;16.55;;;;;;;11.31;100.00;101496.04;1747055;81;22201;-87
2021/04/13 06:42:05;;;;;;;19.32;16.30;;;;;;;11.37;100.00;101496.97;1744252;81;27371;-88
2021/04/13 06:44:41;;;;;;;19.70;15.50;;;;;;;11.44;100.00;101505.22;1758385;79;21169;-89
2021/04/13 06:47:18;;;;;;;21.05;15.60;;;;;;;11.48;100.00;101502.31;1747306;80;21134;-88
2021/04/13 06:50:09;;;;;;;24.92;16.35;;;;;;;11.54;100.00;101501.56;1746586;81;21063;-88
2021/04/13 06:53:02;;;;;;;25.17;14.18;;;;;;;11.58;100.00;101496.02;1744636;81;22130;-89
2021/04/13 06:55:35;;;;;;;25.37;15.10;;;;;;;11.65;100.00;101499.93;1751664;81;21298;-89
2021/04/13 06:58:41;;;;;;;21.30;15.48;;;;;;;11.66;100.00;101504.66;1772762;79;21118;-89
2021/04/13 07:01:46;;;;;;;22.77;15.35;;;;;;;11.66;100.00;101504.19;1745130;81;21170;-89
2021/04/13 07:04:35;;;;;;;21.95;17.17;;;;;;;11.65;100.00;101506.90;1743408;81;21162;-89
2021/04/13 07:07:34;;;;;;;25.62;17.57;;;;;;;11.62;100.00;101503.17;1746700;80;21366;-88
2021/04/13 07:10:18;;;;;;;21.62;15.18;;;;;;;11.56;100.00;101502.28;1742724;81;21261;-88
2021/04/13 07:13:26;;;;;;;21.85;16.62;;;;;;;11.60;100.00;101505.08;1749694;80;21154;-89
2021/04/13 07:16:15;;;;;;;22.25;16.48;;;;;;;11.62;100.00;101500.11;1736851;81;21162;-89
2021/04/13 07:19:05;;;;;;;24.15;16.42;;;;;;;11.60;100.00;101501.16;1720455;81;21122;-87
2021/04/13 07:22:01;;;;;;;23.25;16.57;;;;;;;11.60;100.00;101503.28;1741531;81;22237;-88
2021/04/13 07:24:48;;;;;;;24.57;16.37;;;;;;;11.64;100.00;101504.77;1744915;80;21173;-88
2021/04/13 07:27:31;;;;;;;22.32;15.28;;;;;;;11.71;100.00;101505.67;1744897;81;21598;-88
2021/04/13 07:30:19;;;;;;;22.52;15.95;;;;;;;11.77;100.00;101502.65;1752430;79;21313;-87
2021/04/13 07:32:49;;;;;;;22.27;16.62;;;;;;;11.78;100.00;101500.41;1746745;79;21134;-88
2021/04/13 07:35:19;;;;;;;22.48;17.70;;;;;;;11.84;100.00;101502.61;1770423;79;22284;-89
2021/04/13 07:37:52;;;;;;;25.70;17.12;;;;;;;11.81;100.00;101497.61;1746602;81;21198;-89
2021/04/13 07:40:36;;;;;;;26.15;17.30;;;;;;;11.79;100.00;101496.38;1743439;81;21717;-88
2021/04/13 07:43:25;;;;;;;20.55;15.85;;;;;;;11.84;100.00;101498.24;1746224;81;21202;-89
2021/04/13 07:46:14;;;;;;;21.80;15.95;;;;;;;11.92;100.00;101497.71;1746611;80;21147;-87
2021/04/13 07:48:56;;;;;;;26.40;17.98;;;;;;;12.00;100.00;101498.55;1743840;81;21387;-88
2021/04/13 07:51:59;;;;;;;25.55;17.25;;;;;;;11.97;100.00;101499.59;1742851;81;21098;-88
2021/04/13 07:54:35;;;;;;;24.52;17.52;;;;;;;11.93;100.00;101498.08;1745672;80;21641;-87
2021/04/13 07:57:14;;;;;;;27.50;17.35;;;;;;;11.95;100.00;101492.30;1744274;81;21067;-88
2021/04/13 08:00:05;;;;;;;23.70;15.45;;;;;;;11.99;100.00;101496.39;1744132;81;21143;-88
2021/04/13 08:02:36;;;;;;;22.30;15.58;;;;;;;12.04;100.00;101496.08;1687259;82;21370;-88
2021/04/13 08:05:09;;;;;;;22.85;17.02;;;;;;;12.08;100.00;101498.88;1744345;81;21175;-89
2021/04/13 08:07:46;;;;;;;20.85;15.95;;;;;;;12.13;100.00;101494.64;1722839;81;21135;-89
2021/04/13 08:10:38;;;;;;;23.98;16.75;;;;;;;12.17;100.00;101493.97;1689371;83;21617;-89
2021/04/13 08:13:12;;;;;;;24.85;17.27;;;;;;;12.18;100.00;101486.02;1716137;82;21198;-89
2021/04/13 08:15:52;;;;;;;22.10;16.30;;;;;;;12.11;100.00;101489.98;1660973;83;21159;-89
2021/04/13 08:18:44;;;;;;;21.27;15.83;;;;;;;12.03;100.00;101486.58;1717861;82;21669;-89
2021/04/13 08:21:35;;;;;;;23.60;17.12;;;;;;;11.95;100.00;101483.16;1738984;81;21174;-89
2021/04/13 08:24:04;;;;;;;21.05;15.70;;;;;;;11.90;100.00;101481.31;1736354;81;21597;-89
2021/04/13 08:26:40;;;;;;;22.42;16.20;;;;;;;11.90;100.00;101480.00;1738503;81;21211;-89
2021/04/13 08:29:40;;;;;;;23.67;16.32;;;;;;;11.89;100.00;101477.06;1735139;81;22257;-89
2021/04/13 08:32:50;;;;;;;21.07;16.60;;;;;;;11.86;100.00;101471.21;1739365;81;21171;-89
2021/04/13 08:35:37;;;;;;;23.10;16.35;;;;;;;11.87;100.00;101481.53;1711065;81;21174;-89
2021/04/13 08:38:28;;;;;;;20.45;15.48;;;;;;;11.90;100.00;101477.87;1770632;80;21167;-89
2021/04/13 08:41:22;;;;;;;20.43;15.30;;;;;;;11.93;100.00;101475.08;1743057;81;21170;-89
2021/04/13 08:44:02;;;;;;;21.57;15.28;;;;;;;11.94;100.00;101471.50;1741861;81;22241;-89
2021/04/13 08:46:54;;;;;;;20.27;15.85;;;;;;;12.03;100.00;101476.63;1739154;80;21170;-89
2021/04/13 08:50:27;;;;;;;21.57;15.20;;;;;;;12.17;100.00;101467.37;1852112;77;22280;-88
2021/04/13 08:53:06;;;;;;;21.93;15.78;;;;;;;12.21;100.00;101468.85;1793762;77;21578;-88
2021/04/13 08:55:43;;;;;;;26.12;17.05;;;;;;;12.28;100.00;101460.95;1794209;78;21163;-88
2021/04/13 08:58:26;;;;;;;19.65;15.05;;;;;;;12.29;100.00;101463.94;1822949;78;21170;-87
2021/04/13 09:01:05;;;;;;;24.95;16.17;;;;;;;12.28;100.00;101463.57;1825145;78;21130;-88
2021/04/13 09:03:43;;;;;;;26.87;17.48;;;;;;;12.34;100.00;101471.91;1853713;77;21202;-88
2021/04/13 09:06:22;;;;;;;21.55;15.63;;;;;;;12.35;100.00;101467.05;1857523;77;21422;-88
2021/04/13 09:09:05;;;;;;;23.50;17.17;;;;;;;12.38;100.00;101465.55;1857397;77;21602;-87
2021/04/13 09:11:49;;;;;;;;;;;;;;;12.37;100.00;101468.61;1858830;77;21143;-87
2021/04/13 09:14:36;;;;;;;18.60;15.20;;;;;;;12.35;100.00;101469.66;1856751;77;20249;-88
2021/04/13 09:17:12;;;;;;;21.10;15.63;;;;;;;12.36;100.00;101474.77;1857228;77;21135;-88
2021/04/13 09:20:13;;;;;;;19.73;16.15;;;;;;;12.41;100.00;101472.70;1829384;77;21589;-87
2021/04/13 09:23:26;;;;;;;20.43;15.13;;;;;;;12.49;100.00;101469.53;1857580;77;21350;-88
2021/04/13 09:26:14;;;;;;;23.35;14.45;;;;;;;12.56;100.00;101464.24;1825025;77;21142;-88
2021/04/13 09:28:57;;;;;;;26.15;15.65;;;;;;;12.63;100.00;101465.97;1816387;78;21135;-87
2021/04/13 09:31:36;;;;;;;20.48;15.90;;;;;;;12.67;100.00;101463.97;1824831;78;21173;-87
2021/04/13 09:34:29;;;;;;;20.23;15.72;;;;;;;12.66;100.00;101463.60;1820728;78;21116;-88
2021/04/13 09:37:33;;;;;;;22.98;15.55;;;;;;;12.55;100.00;101470.41;1779931;79;21431;-88
2021/04/13 09:40:26;;;;;;;22.55;15.25;;;;;;;12.48;100.00;101462.64;1833328;78;21145;-88
2021/04/13 09:43:30;;;;;;;21.23;16.90;;;;;;;12.50;100.00;101467.78;1833017;78;21583;-88
2021/04/13 09:46:22;;;;;;;22.70;16.15;;;;;;;12.48;100.00;101464.43;1833548;78;21134;-89
2021/04/13 09:49:11;;;;;;;23.32;17.40;;;;;;;12.39;100.00;101471.11;1814813;78;21184;-89
2021/04/13 09:52:33;;;;;;;22.67;17.57;;;;;;;12.32;100.00;101460.27;1798447;79;22265;-89
2021/04/13 09:55:42;;;;;;;21.48;16.15;;;;;;;12.34;100.00;101464.89;1768640;79;21158;-88
2021/04/13 09:58:42;;;;;;;20.27;17.12;;;;;;;12.38;100.00;101466.38;1794311;79;21178;-88
2021/04/13 10:01:51;;;;;;;24.32;19.02;;;;;;;12.35;100.00;101467.05;1797762;79;21142;-88
2021/04/13 10:04:52;;;;;;;25.82;18.57;;;;;;;12.39;100.00;101465.44;1794019;79;21139;-88
2021/04/13 10:11:37;;;;;;;25.62;19.55;;;;;;;12.49;100.00;101467.41;1798181;79;21539;-86
2021/04/13 10:22:49;;;;;;;26.10;19.95;;;;;;;12.52;100.00;101481.09;1798341;79;21174;-86
2021/04/13 10:25:50;;;;;;;26.20;19.98;;;;;;;12.45;100.00;101478.55;1797030;79;21423;-86
2021/04/13 10:33:25;;;;;;;26.25;21.07;;;;;;;12.39;100.00;101486.33;1798553;79;21143;-89
2021/04/13 10:44:26;;;;;;;21.97;19.05;;;;;;;12.27;100.00;101491.07;1764269;81;21000;-89
2021/04/13 10:56:08;;;;;;;21.75;17.73;;;;;;;12.30;100.00;101500.02;1790363;78;21131;-89
2021/04/13 11:07:11;;;;;;;22.02;16.52;;;;;;;12.23;100.00;101486.53;1812339;79;21147;-89
2021/04/13 11:18:04;;;;;;;37.83;22.80;;;;;;;12.41;100.00;101487.52;1812335;79;21166;-89
2021/04/13 11:29:52;;;;;;;115.42;46.42;;;;;;;12.47;100.00;101480.55;1806290;79;21155;-90
2021/04/13 11:40:43;;;;;;;46.95;28.60;;;;;;;12.57;100.00;101485.52;1817561;77;21544;-92
2021/04/13 11:56:25;;;;;;;25.25;16.07;;;;;;;12.33;100.00;101484.14;1788234;77;21159;-91
2021/04/13 11:59:20;;;;;;;19.87;15.80;;;;;;;12.27;100.00;101482.78;1772151;80;21356;-92
2021/04/13 12:10:04;;;;;;;19.05;13.83;;;;;;;12.14;100.00;101486.70;1803742;79;21120;-88
2021/04/13 12:20:47;;;;;;;19.35;14.07;;;;;;;12.15;100.00;101484.91;1806473;79;21886;-88
2021/04/13 12:27:42;;;;;;;17.85;14.45;;;;;;;12.14;100.00;101476.70;1752381;81;21595;-89
2021/04/13 12:34:57;;;;;;;22.93;15.43;;;;;;;12.13;100.00;101479.80;1769890;81;21139;-89
2021/04/13 12:46:00;;;;;;;19.60;14.70;;;;;;;12.10;100.00;101467.42;1742911;82;21033;-89
2021/04/13 12:57:17;;;;;;;22.90;15.78;;;;;;;12.18;100.00;101460.39;1746551;81;21076;-88
2021/04/13 13:08:21;;;;;;;29.92;18.02;;;;;;;12.02;100.00;101460.59;1755926;81;21485;-88
2021/04/13 13:19:53;;;;;;;29.90;18.50;;;;;;;11.90;100.00;101459.12;1755904;81;21147;-88
2021/04/13 13:31:08;;;;;;;27.20;18.23;;;;;;;11.87;100.00;101459.35;1741845;82;21523;-88
2021/04/13 13:38:01;;;;;;;28.50;18.75;;;;;;;11.86;100.00;101455.55;1738388;82;21179;-88
2021/04/13 13:44:58;;;;;;;29.75;19.70;;;;;;;11.81;100.00;101453.25;1766620;81;21124;-88
2021/04/13 13:52:12;;;;;;;31.00;19.73;;;;;;;11.79;100.00;101460.34;1751344;81;21136;-89
2021/04/13 13:55:35;;;;;;;28.25;20.00;;;;;;;11.77;100.00;101455.68;1739017;81;21119;-91
2021/04/13 14:04:57;;;;;;;35.83;23.22;;;;;;;11.76;100.00;101452.25;1783490;80;21962;-90
2021/04/13 14:07:31;;;;;;;34.65;22.98;;;;;;;11.77;100.00;101447.41;1769342;80;21579;-91
2021/04/13 14:10:23;;;;;;;34.43;24.07;;;;;;;11.78;100.00;101449.05;1748969;82;21230;-91
2021/04/13 14:13:15;;;;;;;45.88;27.32;;;;;;;11.78;100.00;101447.74;1740639;82;21228;-90
2021/04/13 14:15:48;;;;;;;43.55;27.90;;;;;;;11.79;100.00;101450.72;1742479;80;21128;-91
2021/04/13 14:18:33;;;;;;;36.58;25.05;;;;;;;11.80;100.00;101447.17;1742852;80;22281;-91
2021/04/13 14:21:15;;;;;;;41.33;26.33;;;;;;;11.81;100.00;101449.34;1743495;80;21211;-91
2021/04/13 14:28:28;;;;;;;36.88;26.37;;;;;;;11.79;100.00;101453.81;1742765;82;21133;-82
2021/04/13 14:39:27;;;;;;;35.92;26.02;;;;;;;11.67;100.00;101468.03;1742839;82;21606;-82
2021/04/13 14:42:26;;;;;;;31.27;24.52;;;;;;;11.61;100.00;101469.75;1742953;82;21072;-83
2021/04/13 14:49:18;;;;;;;36.63;21.37;;;;;;;11.49;100.00;101464.05;1742923;82;21104;-83
2021/04/13 14:51:47;;;;;;;32.33;21.93;;;;;;;11.42;100.00;101465.36;1749916;81;21368;-83
2021/04/13 14:54:19;;;;;;;28.87;21.20;;;;;;;11.42;100.00;101467.52;1760429;80;21127;-84
2021/04/13 14:56:47;;;;;;;38.28;22.10;;;;;;;11.41;100.00;101461.10;1764742;80;21140;-89
2021/04/13 14:59:17;;;;;;;34.92;22.67;;;;;;;11.40;100.00;101456.81;1736272;80;21262;-87
2021/04/13 15:01:45;;;;;;;50.70;29.07;;;;;;;11.44;100.00;101452.61;1762836;81;21049;-86
2021/04/13 15:04:16;;;;;;;41.18;25.85;;;;;;;11.47;100.00;101456.78;1768348;81;22268;-86
2021/04/13 15:06:44;;;;;;;42.13;25.43;;;;;;;11.49;100.00;101452.31;1772476;81;21218;-86
2021/04/13 15:09:14;;;;;;;34.60;23.92;;;;;;;11.49;100.00;101454.92;1772470;81;21582;-86
2021/04/13 15:11:43;;;;;;;33.05;22.73;;;;;;;11.50;100.00;101452.65;1765854;80;21548;-86
2021/04/13 15:14:13;;;;;;;31.55;22.73;;;;;;;11.50;100.00;101450.89;1772592;81;21187;-86
2021/04/13 15:16:49;;;;;;;30.37;22.07;;;;;;;11.50;100.00;101468.30;1749365;81;21192;-86
2021/04/13 15:19:20;;;;;;;31.17;19.40;;;;;;;11.50;100.00;101463.08;1770567;81;21171;-87
2021/04/13 15:21:54;;;;;;;32.70;22.48;;;;;;;11.52;100.00;101465.13;1772714;81;21174;-86
2021/04/13 15:24:23;;;;;;;37.98;22.93;;;;;;;11.52;100.00;101466.44;1768640;81;21202;-86
2021/04/13 15:26:55;;;;;;;43.17;24.87;;;;;;;11.52;100.00;101465.98;1759067;80;21180;-86
2021/04/13 15:29:25;;;;;;;45.95;26.45;;;;;;;11.46;100.00;101460.32;1772765;81;22242;-86
2021/04/13 15:31:59;;;;;;;45.03;27.27;;;;;;;11.40;100.00;101466.77;1767259;80;21187;-86
2021/04/13 15:34:35;;;;;;;41.75;26.87;;;;;;;11.38;100.00;101467.81;1772703;81;21155;-87
2021/04/13 15:37:09;;;;;;;34.35;24.65;;;;;;;11.37;100.00;101464.37;1769844;81;21176;-86
2021/04/13 15:39:38;;;;;;;34.78;24.25;;;;;;;11.39;100.00;101466.39;1800646;79;21111;-87
2021/04/13 15:42:11;;;;;;;30.35;22.48;;;;;;;11.40;100.00;101464.16;1771907;80;21942;-86
2021/04/13 15:44:45;;;;;;;35.13;24.15;;;;;;;11.42;100.00;101469.27;1777385;80;21630;-86
2021/04/13 15:47:17;;;;;;;35.05;23.30;;;;;;;11.35;100.00;101465.76;1795619;79;21143;-86
2021/04/13 15:49:46;;;;;;;38.67;23.60;;;;;;;11.31;100.00;101471.27;1752978;81;21171;-85
2021/04/13 15:52:14;;;;;;;29.20;20.62;;;;;;;11.30;100.00;101465.23;1759511;81;21134;-86
2021/04/13 15:54:45;;;;;;;;;;;;;;;11.32;100.00;101459.46;1748284;81;21199;-86
2021/04/13 15:57:13;;;;;;;33.48;21.07;;;;;;;11.32;100.00;101457.30;1757263;80;20215;-86
2021/04/13 15:59:45;;;;;;;34.23;21.52;;;;;;;11.31;100.00;101460.39;1758851;80;21691;-86
2021/04/13 16:02:14;;;;;;;35.73;22.40;;;;;;;11.35;100.00;101460.55;1765083;81;21135;-87
2021/04/13 16:04:44;;;;;;;36.80;22.25;;;;;;;11.37;100.00;101459.16;1746563;81;21151;-85
2021/04/13 16:07:13;;;;;;;37.58;22.80;;;;;;;11.40;100.00;101455.52;1765655;81;21342;-85
2021/04/13 16:09:42;;;;;;;35.63;23.02;;;;;;;11.42;100.00;101462.75;1755310;80;21185;-85
2021/04/13 16:12:11;;;;;;;35.25;23.70;;;;;;;11.43;100.00;101465.27;1740266;82;21167;-85
2021/04/13 16:14:39;;;;;;;39.08;23.80;;;;;;;11.42;100.00;101470.56;1757235;81;21168;-85
2021/04/13 16:17:07;;;;;;;36.88;24.40;;;;;;;11.43;100.00;101472.25;1769923;81;21123;-85
2021/04/13 16:19:36;;;;;;;40.58;24.98;;;;;;;11.42;100.00;101467.96;1770004;80;21356;-85
2021/04/13 16:22:05;;;;;;;45.88;23.75;;;;;;;11.40;100.00;101469.86;1769825;81;21068;-85
2021/04/13 16:24:34;;;;;;;46.70;25.08;;;;;;;11.38;100.00;101473.84;1769895;80;21064;-85
2021/04/13 16:27:02;;;;;;;44.23;23.60;;;;;;;11.41;100.00;101480.18;1744683;81;21223;-85
2021/04/13 16:29:31;;;;;;;32.38;22.32;;;;;;;11.41;100.00;101476.75;1769962;80;21163;-85
2021/04/13 16:32:10;;;;;;;43.38;25.45;;;;;;;11.39;100.00;101483.83;1766122;81;22281;-85
2021/04/13 16:34:39;;;;;;;47.58;23.62;;;;;;;11.32;100.00;101480.77;1757610;81;21575;-86
2021/04/13 16:37:13;;;;;;;47.58;25.20;;;;;;;11.27;100.00;101488.06;1759573;80;21065;-85
2021/04/13 16:40:12;;;;;;;37.80;21.37;;;;;;;11.25;100.00;101490.78;1759532;81;21172;-86
2021/04/13 16:42:57;;;;;;;82.70;30.23;;;;;;;11.25;100.00;101489.92;1740683;81;21157;-86
2021/04/13 16:45:39;;;;;;;192.00;64.27;;;;;;;11.17;100.00;101494.34;1763075;80;21562;-86
2021/04/13 16:48:26;;;;;;;257.40;74.62;;;;;;;11.14;100.00;101503.17;1763476;80;21154;-85
2021/04/13 16:51:06;;;;;;;238.87;64.42;;;;;;;11.12;100.00;101502.90;1765923;81;21577;-85
2021/04/13 16:53:36;;;;;;;296.90;79.90;;;;;;;11.10;100.00;101504.76;1766504;79;21628;-85
2021/04/13 16:56:06;;;;;;;278.90;89.70;;;;;;;11.09;100.00;101516.14;1797530;79;21230;-86
2021/04/13 16:58:37;;;;;;;83.17;40.98;;;;;;;11.04;100.00;101517.25;1783479;79;21198;-87
2021/04/13 17:01:11;;;;;;;92.57;34.78;;;;;;;11.03;100.00;101516.05;1741381;81;21076;-87
2021/04/13 17:03:53;;;;;;;61.83;24.67;;;;;;;10.97;100.00;101520.36;1756562;81;21163;-87
2021/04/13 17:06:46;;;;;;;29.00;16.45;;;;;;;10.92;100.00;101523.25;1746439;81;21206;-87
2021/04/13 17:09:29;;;;;;;;;;;;;;;10.87;100.00;101526.58;1772228;81;21195;-87
2021/04/13 17:12:09;;;;;;;30.70;13.90;;;;;;;10.79;100.00;101530.12;1769871;80;21363;-87
2021/04/13 17:15:04;;;;;;;26.52;14.25;;;;;;;10.70;100.00;101531.06;1768057;81;21182;-87
2021/04/13 17:17:41;;;;;;;19.60;11.50;;;;;;;10.63;100.00;101532.37;1766967;81;21156;-87
2021/04/13 17:20:19;;;;;;;28.15;13.78;;;;;;;10.58;100.00;101537.03;1745379;81;21179;-87
2021/04/13 17:23:06;;;;;;;25.32;11.65;;;;;;;10.58;100.00;101535.73;1839712;76;22998;-87
2021/04/13 17:25:37;;;;;;;16.82;13.50;;;;;;;10.51;100.00;101531.34;1798752;79;21122;-87
2021/04/13 17:28:22;;;;;;;25.80;14.05;;;;;;;10.52;100.00;101532.20;1778962;78;21255;-88
2021/04/13 17:31:07;;;;;;;18.45;13.38;;;;;;;10.46;100.00;101530.80;1796232;78;21193;-88
2021/04/13 17:33:38;;;;;;;20.50;15.05;;;;;;;10.43;100.00;101541.86;1774945;79;21209;-88
2021/04/13 17:36:29;;;;;;;20.48;14.28;;;;;;;10.31;100.00;101537.71;1787690;79;21182;-88
2021/04/13 17:39:18;;;;;;;19.65;14.38;;;;;;;10.18;100.00;101538.90;1795983;78;21208;-89
2021/04/13 17:41:55;;;;;;;20.30;12.55;;;;;;;10.03;100.00;101539.80;1774756;80;21632;-89
2021/04/13 17:44:29;;;;;;;17.95;11.85;;;;;;;9.90;100.00;101530.11;1777761;79;21208;-89
2021/04/13 17:47:06;;;;;;;18.23;13.13;;;;;;;9.82;100.00;101542.72;1804567;78;21173;-89
2021/04/13 17:49:38;;;;;;;17.70;12.30;;;;;;;9.75;100.00;101527.09;1805143;79;21066;-89
2021/04/13 17:52:08;;;;;;;14.98;10.85;;;;;;;9.68;100.00;101529.67;1807989;79;21141;-89
2021/04/13 17:54:37;;;;;;;17.27;11.53;;;;;;;9.66;100.00;101536.72;1807949;79;21208;-89
2021/04/13 17:57:14;;;;;;;13.62;10.00;;;;;;;9.66;100.00;101535.41;1807955;78;21129;-89
2021/04/13 17:59:43;;;;;;;14.28;9.63;;;;;;;9.66;100.00;101537.54;1804760;78;21208;-89
2021/04/13 18:02:32;;;;;;;12.85;10.08;;;;;;;9.67;100.00;101543.59;1807911;78;21605;-89
2021/04/13 18:05:18;;;;;;;13.25;9.63;;;;;;;9.67;100.00;101548.32;1807947;78;21125;-89
2021/04/13 18:07:54;;;;;;;18.40;11.68;;;;;;;9.68;100.00;101548.70;1773734;79;22304;-89
2021/04/13 18:10:27;;;;;;;16.25;11.73;;;;;;;9.66;100.00;101540.14;1801173;78;21105;-90
2021/04/13 18:13:13;;;;;;;17.25;11.25;;;;;;;9.66;100.00;101538.84;1807675;78;21171;-90
2021/04/13 18:15:48;;;;;;;19.05;11.68;;;;;;;9.65;100.00;101538.49;1800012;78;22183;-89
2021/04/13 18:18:36;;;;;;;15.40;11.97;;;;;;;9.65;100.00;101537.63;1785239;79;21189;-89
2021/04/13 18:21:17;;;;;;;20.48;13.15;;;;;;;9.70;100.00;101534.30;1887382;76;22011;-88
2021/04/13 18:24:05;;;;;;;19.15;12.37;;;;;;;9.66;100.00;101529.73;1848225;77;21218;-89
2021/04/13 18:26:41;;;;;;;20.80;13.35;;;;;;;9.66;100.00;101537.54;1848046;77;21322;-90
2021/04/13 18:29:17;;;;;;;18.45;12.15;;;;;;;9.67;100.00;101535.80;1845896;77;21579;-90
2021/04/13 18:31:56;;;;;;;20.52;12.35;;;;;;;9.65;100.00;101534.59;1844985;77;21080;-90
2021/04/13 18:34:39;;;;;;;20.88;13.43;;;;;;;9.63;100.00;101528.16;1844573;77;21119;-90
2021/04/13 18:37:27;;;;;;;20.50;13.75;;;;;;;9.63;100.00;101520.34;1847225;77;21520;-89
2021/04/13 18:40:04;;;;;;;19.67;13.60;;;;;;;9.61;100.00;101509.19;1842480;77;22060;-90
2021/04/13 18:42:37;;;;;;;21.45;14.05;;;;;;;9.59;100.00;101507.61;1848169;77;21140;-90
2021/04/13 18:45:18;;;;;;;17.00;13.48;;;;;;;9.58;100.00;101503.33;1844901;77;21195;-90
2021/04/13 18:48:10;;;;;;;23.18;14.25;;;;;;;9.56;100.00;101513.00;1843280;77;21143;-90
2021/04/13 18:50:47;;;;;;;29.15;14.38;;;;;;;9.53;100.00;101515.77;1844588;77;21111;-90
2021/04/13 18:53:40;;;;;;;20.68;15.63;;;;;;;9.49;100.00;101518.17;1848088;77;21554;-89
2021/04/13 18:56:13;;;;;;;22.95;16.73;;;;;;;9.43;100.00;101514.98;1845762;77;21182;-89
2021/04/13 18:58:46;;;;;;;26.50;15.78;;;;;;;9.42;100.00;101511.17;1848372;77;21111;-89
2021/04/13 19:01:18;;;;;;;24.50;16.60;;;;;;;9.40;100.00;101511.27;1844834;77;21202;-89
2021/04/13 19:03:47;;;;;;;25.40;18.48;;;;;;;9.43;100.00;101512.85;1848569;77;21167;-89